Airfield :
LOGIN :

Register | Disclaimer

   EN    FR    IT 

 










Legend :    VFR   Marginal VFR   IFR   Intensive IFR   Very Intensive IFR
Visi :
Ceiling :
>= 8 km
>= 3000ft
5 to 8 km
1000 to 3000 ft
1500m to 5 km
500 to 1000 ft
800 to 1500m
200 to 500 ft
< 800m
< 200 ft
Symbols :   Thunderstorms  Fog  Heavy snow  Heavy precipitations  Wind > 20 kt
SIGMETs :     Misc.  Thunderstorms  Icing  Turbulence  Mountain Waves  Volcanic Ashes






- Airport Elevation : 622 ft
- IATA code : BRS


EGGD - Bristol Int.

CURRENT METAR :
  • 200050Z AUTO 24003KT 9999 NCD 03/02 Q1048

EXPIRED METARs :
  • 200020Z AUTO 28006KT 9999 NCD 02/01 Q1048
  • 192350Z AUTO 26003KT 9999 NCD 03/01 Q1049
  • 192320Z AUTO 28006KT 9999 NCD 02/01 Q1049
  • 192250Z AUTO 22004KT 9999 NCD 03/02 Q1048
  • 192220Z AUTO 20004KT 9999 NCD 03/01 Q1048
  • 192150Z AUTO 20004KT 9999 NCD 03/00 Q1048

TAF TAF EGGD
Valid from the 20 at 00:00 until the 21 at 00:00 UTC


192302Z 2000/2024 VRB03KT CAVOK
TEMPO 2003/2011 8000
ATIS : +44 1275 473 666



MET'MAP, your aeronautical weather chart ! - Copyright ORBIFLY December 2007 - Disclaimer

ORBIFLY MET'MAP TEAM :

Programming & Development : Alexandra Zaïnal
Concept & original design : Baudouin d'Aumeries
Assistance for programming : Marc-Olivier Méhu
Technical & hardware support : Manuel Goepfert

Contact : metmap@orbifly.com




SOURCES & CREDITS :

   NOAA